Hokah, Minnesota
Current Conditions -  °F | °C
As of 7:53 AM on Saturday 25 Oct 2014 (Local Time) from KLSE Reporting Station
Light Fog Light Fog  
Wind Chill: 44°   Ceiling: 300
Heat Index: 44°   Visibility: 0.25mi
Dew Point: 43°   Wind: 3mph
Humidity: 96%   Direction: 130°SE
Pressure: 29.96"   Gusts: NA
Location:  43.76°N, 91.35°W
Report Text: KLSE 251253Z 13003KT 1/4SM MIFG VV003 07/06 A2996 RMK AO2 SLP147 T00670061
Loading
Personal Weather Stations






























Interactive Weather Map
Tropical Storm Tracking
New forecast layout! Learn more

10-Day Weather Forecast

Advertisements
Track Severe Weather on mobile